createdAt,value
2022-08-14T00:01:32.394Z,23.36
2022-08-14T00:03:59.594Z,23.30
2022-08-14T00:06:29.124Z,23.29
2022-08-14T00:08:59.182Z,23.28
2022-08-14T00:11:28.755Z,23.24
2022-08-14T00:13:59.605Z,23.29
2022-08-14T00:16:41.576Z,23.21
2022-08-14T00:19:19.169Z,23.16
2022-08-14T00:21:50.308Z,23.07
2022-08-14T00:24:23.318Z,22.80
2022-08-14T00:26:56.378Z,23.00
2022-08-14T00:29:25.591Z,22.96
2022-08-14T00:31:56.261Z,22.85
2022-08-14T00:34:36.651Z,22.82
2022-08-14T00:37:11.215Z,22.90
2022-08-14T00:39:40.632Z,22.81
2022-08-14T00:42:21.298Z,22.79
2022-08-14T00:44:56.814Z,22.77
2022-08-14T00:47:26.984Z,22.86
2022-08-14T00:49:56.453Z,22.74
2022-08-14T00:52:25.345Z,22.76
2022-08-14T00:54:58.026Z,22.65
2022-08-14T00:57:31.093Z,22.60
2022-08-14T01:00:00.685Z,22.50
2022-08-14T01:02:31.920Z,22.54
2022-08-14T01:05:01.498Z,22.48
2022-08-14T01:07:47.326Z,22.34
2022-08-14T01:10:17.988Z,22.33
2022-08-14T01:12:45.733Z,22.32
2022-08-14T01:15:17.033Z,22.10
2022-08-14T01:18:02.852Z,21.93
2022-08-14T01:20:50.715Z,22.11
2022-08-14T01:23:18.753Z,21.85
2022-08-14T01:25:48.911Z,21.78
2022-08-14T01:28:46.803Z,21.74
2022-08-14T01:31:08.760Z,21.58
2022-08-14T01:34:00.142Z,21.40
2022-08-14T01:36:28.015Z,21.44
2022-08-14T01:38:59.004Z,21.43
2022-08-14T01:41:30.138Z,21.20
2022-08-14T01:44:05.483Z,21.41
2022-08-14T01:46:57.952Z,21.29
2022-08-14T01:49:35.290Z,21.16
2022-08-14T01:52:09.059Z,21.28
2022-08-14T01:54:40.381Z,21.42
2022-08-14T01:57:11.661Z,21.32
2022-08-14T01:59:43.885Z,21.22
2022-08-14T02:02:14.689Z,21.35
2022-08-14T02:04:55.800Z,21.47
2022-08-14T02:07:34.452Z,21.38
2022-08-14T02:10:15.650Z,21.52
2022-08-14T02:12:54.292Z,21.52
2022-08-14T02:15:25.901Z,21.35
2022-08-14T02:17:53.291Z,21.39
2022-08-14T02:20:23.939Z,21.37
2022-08-14T02:22:54.825Z,21.42
2022-08-14T02:25:22.613Z,21.29
2022-08-14T02:28:23.365Z,21.19
2022-08-14T02:30:38.421Z,21.06
2022-08-14T02:33:07.680Z,20.93
2022-08-14T02:35:41.671Z,20.99
2022-08-14T02:38:11.453Z,21.05
2022-08-14T02:40:39.301Z,21.17
2022-08-14T02:43:07.858Z,21.06
2022-08-14T02:45:44.486Z,20.97
2022-08-14T02:49:04.825Z,21.30
2022-08-14T02:51:03.992Z,20.93
2022-08-14T02:53:31.589Z,20.99
2022-08-14T02:56:03.321Z,20.98
2022-08-14T02:58:50.951Z,20.67
2022-08-14T03:01:24.200Z,21.04
2022-08-14T03:03:58.582Z,20.52
2022-08-14T03:06:48.784Z,20.45
2022-08-14T03:09:13.361Z,19.91
2022-08-14T03:11:44.798Z,20.54
2022-08-14T03:14:12.512Z,20.78
2022-08-14T03:16:43.592Z,20.68
2022-08-14T03:19:11.716Z,20.46
2022-08-14T03:21:40.674Z,20.80
2022-08-14T03:24:16.373Z,20.61
2022-08-14T03:26:50.006Z,20.69
2022-08-14T03:29:26.313Z,20.84
2022-08-14T03:31:53.687Z,20.65
2022-08-14T03:34:24.425Z,20.38
2022-08-14T03:37:37.889Z,20.57
2022-08-14T03:40:00.466Z,20.78
2022-08-14T03:42:31.038Z,20.71
2022-08-14T03:45:19.678Z,20.87
2022-08-14T03:47:58.919Z,20.80
2022-08-14T03:50:30.835Z,20.86
2022-08-14T03:53:03.496Z,20.81
2022-08-14T03:55:31.484Z,20.83
2022-08-14T03:58:00.445Z,20.70
2022-08-14T04:00:40.429Z,20.83
2022-08-14T04:03:23.599Z,20.56
2022-08-14T04:05:51.373Z,20.84
2022-08-14T04:08:29.354Z,21.03
2022-08-14T04:11:01.318Z,20.73
2022-08-14T04:13:31.788Z,20.82
2022-08-14T04:16:05.395Z,20.87
2022-08-14T04:18:42.871Z,21.09
2022-08-14T04:21:11.474Z,21.26
2022-08-14T04:23:39.738Z,21.21
2022-08-14T04:26:14.834Z,21.30
2022-08-14T04:29:06.767Z,21.53
2022-08-14T04:33:00.248Z,21.73
2022-08-14T04:34:27.372Z,21.44
2022-08-14T04:37:22.174Z,21.46
2022-08-14T04:40:11.251Z,21.59
2022-08-14T04:42:56.731Z,21.73
2022-08-14T04:45:25.670Z,22.11
2022-08-14T04:48:39.086Z,22.42
2022-08-14T04:51:03.820Z,22.85
2022-08-14T04:53:34.815Z,23.33
2022-08-14T04:56:02.506Z,23.62
2022-08-14T04:58:33.964Z,23.91
2022-08-14T05:01:03.916Z,24.31
2022-08-14T05:03:32.713Z,24.47
2022-08-14T05:06:01.494Z,24.76
2022-08-14T05:08:50.711Z,24.97
2022-08-14T05:11:19.993Z,25.16
2022-08-14T05:14:17.257Z,25.22
2022-08-14T05:16:33.937Z,25.43
2022-08-14T05:19:19.161Z,25.43
2022-08-14T05:21:59.491Z,25.31
2022-08-14T05:24:34.172Z,25.25
2022-08-14T05:27:03.402Z,25.55
2022-08-14T05:29:31.301Z,25.40
2022-08-14T05:32:01.241Z,25.49
2022-08-14T05:34:31.594Z,25.72
2022-08-14T05:37:02.461Z,25.59
2022-08-14T05:39:31.425Z,26.21
2022-08-14T05:42:00.677Z,26.36
2022-08-14T05:44:30.773Z,26.25
2022-08-14T05:46:59.053Z,26.17
2022-08-14T05:49:33.446Z,26.35
2022-08-14T05:52:02.499Z,26.16
2022-08-14T05:54:35.640Z,26.83
2022-08-14T05:57:04.949Z,27.44
2022-08-14T05:59:39.216Z,27.46
2022-08-14T06:02:11.148Z,27.54
2022-08-14T06:04:49.451Z,27.63
2022-08-14T06:07:16.561Z,27.90
2022-08-14T06:09:43.781Z,28.34
2022-08-14T06:12:55.087Z,28.73
2022-08-14T06:15:08.150Z,28.61
2022-08-14T06:17:56.633Z,29.39
2022-08-14T06:20:26.717Z,28.80
2022-08-14T06:22:56.304Z,28.65
2022-08-14T06:25:25.073Z,29.65
2022-08-14T06:27:53.232Z,28.17
2022-08-14T06:30:30.497Z,29.17
2022-08-14T06:33:13.181Z,29.45
2022-08-14T06:35:43.192Z,28.43
2022-08-14T06:38:17.276Z,29.00
2022-08-14T06:40:45.891Z,27.75
2022-08-14T06:43:15.462Z,26.94
2022-08-14T06:45:44.043Z,27.17
2022-08-14T06:48:24.074Z,27.38
2022-08-14T06:50:53.140Z,26.94
2022-08-14T06:53:20.472Z,26.22
2022-08-14T06:55:58.138Z,26.04
2022-08-14T06:58:30.889Z,27.03
2022-08-14T07:01:25.109Z,27.62
2022-08-14T07:04:23.113Z,28.29
2022-08-14T07:06:55.666Z,28.30
2022-08-14T07:09:28.156Z,29.14
2022-08-14T07:12:09.072Z,29.34
2022-08-14T07:15:01.042Z,30.07
2022-08-14T07:17:28.751Z,30.12
2022-08-14T07:19:58.828Z,29.94
2022-08-14T07:22:33.007Z,30.77
2022-08-14T07:25:13.071Z,30.80
2022-08-14T07:27:40.991Z,31.31
2022-08-14T07:30:33.798Z,32.10
2022-08-14T07:32:57.291Z,31.09
2022-08-14T07:35:24.030Z,31.99
2022-08-14T07:37:57.172Z,32.21
2022-08-14T07:40:27.510Z,32.91
2022-08-14T07:42:56.666Z,31.25
2022-08-14T07:45:23.873Z,31.99
2022-08-14T07:47:51.442Z,31.58
2022-08-14T07:50:21.131Z,32.13
2022-08-14T07:52:50.251Z,32.09
2022-08-14T07:55:21.131Z,32.12
2022-08-14T07:57:48.190Z,32.20
2022-08-14T08:00:31.221Z,31.15
2022-08-14T08:03:00.336Z,31.60
2022-08-14T08:05:28.065Z,31.07
2022-08-14T08:07:54.892Z,32.54
2022-08-14T08:10:57.218Z,31.88
2022-08-14T08:13:24.029Z,32.21
2022-08-14T08:15:59.706Z,31.53
2022-08-14T08:18:31.078Z,31.13
2022-08-14T08:20:59.710Z,31.70
2022-08-14T08:23:40.023Z,32.92
2022-08-14T08:26:10.581Z,33.01
2022-08-14T08:28:37.384Z,33.52
2022-08-14T08:31:08.261Z,33.42
2022-08-14T08:33:37.153Z,33.93
2022-08-14T08:36:07.979Z,34.38
2022-08-14T08:39:14.738Z,34.78
2022-08-14T08:41:23.032Z,33.23
2022-08-14T08:43:51.120Z,33.74
2022-08-14T08:46:23.991Z,32.63
2022-08-14T08:48:53.887Z,34.00
2022-08-14T08:51:51.203Z,34.63
2022-08-14T08:54:26.421Z,34.44
2022-08-14T08:56:53.673Z,34.07
2022-08-14T08:59:31.183Z,33.53
2022-08-14T09:01:58.770Z,34.31
2022-08-14T09:04:34.170Z,34.68
2022-08-14T09:07:10.795Z,32.80
2022-08-14T09:09:54.442Z,33.62
2022-08-14T09:12:29.820Z,33.92
2022-08-14T09:15:02.044Z,34.60
2022-08-14T09:17:29.415Z,33.50
2022-08-14T09:19:57.166Z,32.63
2022-08-14T09:22:34.811Z,34.04
2022-08-14T09:25:07.364Z,34.30
2022-08-14T09:27:35.676Z,33.18
2022-08-14T09:30:12.652Z,33.45
2022-08-14T09:33:09.179Z,34.79
2022-08-14T09:36:12.352Z,34.63
2022-08-14T09:38:55.283Z,35.19
2022-08-14T09:42:20.722Z,33.00
2022-08-14T09:44:52.814Z,34.50
2022-08-14T09:47:19.732Z,35.56
2022-08-14T09:49:53.185Z,36.28
2022-08-14T09:52:33.205Z,36.72
2022-08-14T09:55:00.566Z,37.08
2022-08-14T09:57:31.549Z,37.35
2022-08-14T10:00:12.002Z,36.55
2022-08-14T10:03:05.132Z,37.03
2022-08-14T10:05:35.151Z,36.45
2022-08-14T10:08:25.306Z,37.40
2022-08-14T10:10:57.309Z,37.53
2022-08-14T10:13:43.010Z,36.78
2022-08-14T10:16:25.616Z,37.19
2022-08-14T10:19:10.351Z,37.62
2022-08-14T10:21:58.189Z,37.78
2022-08-14T10:24:42.215Z,37.88
2022-08-14T10:27:19.604Z,38.51
2022-08-14T10:29:52.735Z,39.13
2022-08-14T10:32:28.241Z,39.61
2022-08-14T10:35:14.738Z,39.71
2022-08-14T10:37:50.256Z,40.07
2022-08-14T10:40:38.187Z,38.35
2022-08-14T10:43:16.582Z,39.55
2022-08-14T10:46:03.531Z,39.74
2022-08-14T10:48:55.501Z,37.92
2022-08-14T10:51:30.201Z,38.88
2022-08-14T10:54:25.994Z,39.41
2022-08-14T10:56:56.082Z,39.36
2022-08-14T10:59:30.967Z,40.11
2022-08-14T11:02:02.331Z,40.42
2022-08-14T11:04:31.073Z,40.26
2022-08-14T11:06:58.870Z,40.71
2022-08-14T11:09:26.642Z,40.47
2022-08-14T11:12:33.845Z,39.94
2022-08-14T11:15:02.732Z,39.83
2022-08-14T11:17:32.727Z,39.95
2022-08-14T11:20:01.627Z,39.08
2022-08-14T11:23:03.470Z,38.94
2022-08-14T11:25:21.283Z,39.24
2022-08-14T11:27:49.071Z,39.25
2022-08-14T11:30:50.161Z,39.52
2022-08-14T11:33:09.095Z,39.52
2022-08-14T11:35:47.236Z,38.74
2022-08-14T11:38:17.242Z,38.70
2022-08-14T11:40:47.265Z,38.68
2022-08-14T11:43:15.576Z,38.17
2022-08-14T11:45:48.925Z,38.81
2022-08-14T11:49:02.470Z,38.46
2022-08-14T11:51:13.939Z,38.91
2022-08-14T11:53:42.028Z,37.57
2022-08-14T11:56:10.947Z,37.94
2022-08-14T11:58:38.409Z,38.23
2022-08-14T12:01:09.497Z,38.50
2022-08-14T12:03:52.393Z,38.13
2022-08-14T12:06:28.982Z,38.89
2022-08-14T12:09:08.820Z,38.55
2022-08-14T12:11:47.601Z,38.80
2022-08-14T12:14:29.974Z,38.42
2022-08-14T12:17:12.165Z,38.60
2022-08-14T12:19:51.283Z,38.80
2022-08-14T12:22:42.207Z,38.72
2022-08-14T12:25:15.876Z,38.78
2022-08-14T12:27:52.481Z,38.80
2022-08-14T12:30:42.571Z,38.76
2022-08-14T12:33:30.487Z,38.80
2022-08-14T12:36:04.486Z,39.23
2022-08-14T12:38:43.650Z,39.45
2022-08-14T12:41:21.468Z,39.60
2022-08-14T12:43:59.756Z,40.23
2022-08-14T12:46:43.450Z,39.31
2022-08-14T12:49:15.977Z,39.15
2022-08-14T12:51:44.802Z,39.06
2022-08-14T12:54:26.073Z,38.72
2022-08-14T12:57:04.408Z,38.75
2022-08-14T12:59:37.240Z,38.55
2022-08-14T13:02:25.521Z,36.73
2022-08-14T13:04:56.493Z,36.05
2022-08-14T13:07:26.422Z,36.74
2022-08-14T13:09:59.087Z,37.29
2022-08-14T13:12:32.392Z,37.47
2022-08-14T13:15:09.005Z,37.52
2022-08-14T13:17:45.333Z,37.72
2022-08-14T13:20:23.409Z,37.99
2022-08-14T13:22:56.261Z,38.00
2022-08-14T13:25:27.746Z,38.45
2022-08-14T13:27:57.969Z,38.58
2022-08-14T13:30:26.433Z,38.55
2022-08-14T13:32:58.116Z,38.51
2022-08-14T13:35:27.070Z,38.39
2022-08-14T13:37:54.237Z,38.44
2022-08-14T13:40:26.538Z,38.28
2022-08-14T13:42:57.299Z,38.31
2022-08-14T13:45:34.083Z,38.42
2022-08-14T13:48:28.517Z,38.45
2022-08-14T13:51:03.384Z,38.40
2022-08-14T13:53:35.203Z,38.60
2022-08-14T13:56:06.188Z,38.52
2022-08-14T13:58:35.641Z,38.52
2022-08-14T14:01:04.481Z,38.37
2022-08-14T14:03:35.287Z,38.04
2022-08-14T14:06:03.955Z,38.01
2022-08-14T14:08:46.723Z,37.88
2022-08-14T14:11:24.178Z,37.62
2022-08-14T14:13:57.065Z,37.25
2022-08-14T14:16:30.397Z,37.26
2022-08-14T14:19:10.453Z,37.09
2022-08-14T14:21:40.607Z,36.91
2022-08-14T14:24:08.325Z,36.65
2022-08-14T14:26:50.069Z,36.80
2022-08-14T14:29:19.422Z,36.69
2022-08-14T14:31:53.502Z,36.63
2022-08-14T14:34:29.358Z,36.23
2022-08-14T14:37:03.149Z,36.41
2022-08-14T14:39:31.410Z,36.11
2022-08-14T14:42:06.246Z,36.12
2022-08-14T14:44:40.499Z,35.89
2022-08-14T14:47:11.672Z,35.77
2022-08-14T14:49:50.989Z,35.71
2022-08-14T14:52:27.555Z,35.67
2022-08-14T14:54:59.288Z,35.75
2022-08-14T14:57:34.988Z,35.81
2022-08-14T15:00:02.434Z,35.80
2022-08-14T15:02:38.267Z,35.85
2022-08-14T15:05:08.283Z,35.88
2022-08-14T15:07:36.873Z,35.63
2022-08-14T15:10:06.708Z,35.81
2022-08-14T15:12:56.129Z,35.54
2022-08-14T15:15:23.830Z,35.68
2022-08-14T15:17:54.697Z,35.55
2022-08-14T15:20:30.469Z,35.49
2022-08-14T15:23:11.695Z,35.54
2022-08-14T15:25:43.960Z,35.48
2022-08-14T15:28:21.359Z,35.33
2022-08-14T15:30:57.709Z,35.22
2022-08-14T15:34:33.412Z,35.36
2022-08-14T15:36:31.680Z,35.29
2022-08-14T15:38:59.441Z,35.24
2022-08-14T15:41:26.852Z,35.04
2022-08-14T15:44:01.480Z,34.94
2022-08-14T15:46:42.985Z,34.65
2022-08-14T15:49:12.770Z,34.72
2022-08-14T15:51:42.311Z,34.69
2022-08-14T15:54:11.481Z,34.50
2022-08-14T15:56:43.033Z,34.48
2022-08-14T15:59:13.150Z,34.35
2022-08-14T16:01:54.190Z,34.16
2022-08-14T16:04:23.776Z,34.49
2022-08-14T16:06:54.845Z,34.42
2022-08-14T16:09:23.006Z,34.14
2022-08-14T16:11:53.939Z,33.76
2022-08-14T16:14:21.768Z,33.58
2022-08-14T16:17:00.758Z,33.55
2022-08-14T16:19:39.836Z,33.40
2022-08-14T16:22:57.587Z,33.27
2022-08-14T16:25:02.106Z,32.97
2022-08-14T16:27:37.166Z,32.84
2022-08-14T16:30:10.829Z,32.79
2022-08-14T16:32:55.499Z,32.51
2022-08-14T16:35:26.387Z,32.39
2022-08-14T16:37:55.695Z,32.02
2022-08-14T16:43:04.218Z,31.87
2022-08-14T16:45:43.737Z,32.02
2022-08-14T16:48:57.041Z,31.96
2022-08-14T16:50:58.632Z,32.11
2022-08-14T16:53:27.714Z,32.05
2022-08-14T16:56:23.153Z,32.07
2022-08-14T16:59:30.290Z,32.01
2022-08-14T17:02:05.128Z,31.90
2022-08-14T17:04:34.852Z,31.83
2022-08-14T17:07:13.551Z,31.62
2022-08-14T17:09:53.147Z,31.72
2022-08-14T17:12:33.536Z,31.50
2022-08-14T17:15:15.446Z,31.49
2022-08-14T17:17:57.772Z,31.55
2022-08-14T17:20:54.695Z,31.57
2022-08-14T17:23:12.315Z,31.61
2022-08-14T17:25:40.490Z,31.31
2022-08-14T17:28:51.361Z,31.20
2022-08-14T17:31:07.269Z,31.22
2022-08-14T17:33:40.859Z,31.20
2022-08-14T17:36:21.321Z,31.21
2022-08-14T17:39:08.609Z,31.23
2022-08-14T17:42:01.961Z,31.24
2022-08-14T17:44:45.100Z,31.10
2022-08-14T17:47:18.326Z,31.12
2022-08-14T17:49:51.982Z,31.09
2022-08-14T17:52:34.379Z,30.94
2022-08-14T17:55:05.827Z,30.93
2022-08-14T17:57:45.393Z,30.76
2022-08-14T18:00:16.482Z,30.83
2022-08-14T18:02:50.502Z,30.70
2022-08-14T18:05:23.506Z,30.62
2022-08-14T18:08:34.204Z,30.65
2022-08-14T18:10:56.792Z,30.55
2022-08-14T18:13:51.890Z,30.55
2022-08-14T18:16:20.602Z,30.50
2022-08-14T18:18:50.201Z,30.54
2022-08-14T18:21:40.673Z,30.32
2022-08-14T18:24:28.240Z,30.24
2022-08-14T18:27:01.729Z,30.27
2022-08-14T18:29:32.143Z,30.18
2022-08-14T18:32:00.088Z,29.93
2022-08-14T18:34:37.671Z,29.88
2022-08-14T18:37:17.417Z,29.37
2022-08-14T18:40:01.120Z,29.32
2022-08-14T18:42:50.830Z,29.17
2022-08-14T18:45:28.508Z,28.96
2022-08-14T18:48:15.981Z,28.75
2022-08-14T18:50:54.243Z,28.74
2022-08-14T18:53:34.204Z,28.68
2022-08-14T18:56:10.122Z,28.52
2022-08-14T18:58:56.850Z,28.35
2022-08-14T19:01:29.792Z,28.30
2022-08-14T19:03:59.537Z,28.25
2022-08-14T19:06:40.619Z,28.23
2022-08-14T19:09:07.790Z,28.35
2022-08-14T19:11:38.056Z,28.17
2022-08-14T19:14:06.810Z,28.02
2022-08-14T19:16:35.117Z,28.01
2022-08-14T19:19:05.106Z,27.90
2022-08-14T19:21:43.705Z,27.81
2022-08-14T19:24:27.494Z,27.63
2022-08-14T19:27:24.193Z,27.58
2022-08-14T19:30:20.289Z,27.70
2022-08-14T19:32:52.176Z,27.63
2022-08-14T19:35:49.351Z,27.61
2022-08-14T19:38:53.805Z,27.50
2022-08-14T19:41:29.593Z,27.37
2022-08-14T19:44:15.111Z,27.35
2022-08-14T19:47:01.812Z,27.14
2022-08-14T19:50:24.334Z,27.20
2022-08-14T19:52:22.776Z,27.06
2022-08-14T19:54:51.198Z,26.99
2022-08-14T19:57:23.128Z,26.70
2022-08-14T19:59:59.456Z,26.50
2022-08-14T20:02:30.073Z,26.69
2022-08-14T20:05:03.833Z,26.71
2022-08-14T20:07:58.911Z,26.49
2022-08-14T20:11:03.834Z,26.53
2022-08-14T20:13:32.172Z,26.73
2022-08-14T20:16:12.072Z,26.76
2022-08-14T20:18:49.271Z,26.53
2022-08-14T20:21:16.596Z,26.39
2022-08-14T20:23:43.471Z,26.32
2022-08-14T20:26:31.321Z,26.19
2022-08-14T20:29:04.427Z,25.28
2022-08-14T20:31:36.536Z,25.09
2022-08-14T20:34:06.213Z,25.20
2022-08-14T20:36:39.019Z,25.13
2022-08-14T20:39:15.023Z,25.02
2022-08-14T20:41:48.905Z,24.87
2022-08-14T20:44:41.459Z,25.12
2022-08-14T20:47:15.434Z,25.16
2022-08-14T20:49:42.746Z,25.23
2022-08-14T20:52:19.931Z,25.29
2022-08-14T20:54:51.188Z,25.24
2022-08-14T20:57:19.070Z,25.03
2022-08-14T20:59:53.609Z,24.99
2022-08-14T21:02:38.574Z,25.14
2022-08-14T21:05:19.584Z,25.17
2022-08-14T21:07:51.305Z,25.06
2022-08-14T21:10:35.826Z,25.05
2022-08-14T21:14:17.840Z,25.18
2022-08-14T21:16:34.510Z,25.13
2022-08-14T21:18:58.331Z,25.05
2022-08-14T21:21:41.312Z,24.85
2022-08-14T21:24:38.580Z,24.56
2022-08-14T21:27:12.371Z,24.51
2022-08-14T21:29:54.366Z,24.81
2022-08-14T21:32:33.773Z,24.66
2022-08-14T21:35:08.547Z,24.57
2022-08-14T21:37:43.786Z,24.63
2022-08-14T21:40:29.591Z,24.33
2022-08-14T21:43:01.393Z,24.57
2022-08-14T21:45:28.131Z,24.54
2022-08-14T21:47:56.475Z,24.63
2022-08-14T21:50:56.367Z,24.48
2022-08-14T21:53:13.662Z,24.34
2022-08-14T21:55:42.567Z,24.08
2022-08-14T21:58:52.016Z,24.08
2022-08-14T22:00:58.017Z,23.71
2022-08-14T22:03:26.499Z,23.92
2022-08-14T22:06:04.195Z,23.84
2022-08-14T22:08:30.913Z,23.93
2022-08-14T22:11:00.338Z,23.91
2022-08-14T22:13:32.404Z,23.73
2022-08-14T22:16:02.341Z,23.53
2022-08-14T22:18:29.967Z,23.85
2022-08-14T22:20:57.351Z,23.93
2022-08-14T22:23:25.803Z,23.66
2022-08-14T22:25:54.819Z,23.56
2022-08-14T22:28:32.465Z,23.43
2022-08-14T22:31:02.365Z,23.15
2022-08-14T22:33:31.161Z,23.13
2022-08-14T22:36:00.284Z,23.05
2022-08-14T22:38:36.309Z,23.26
2022-08-14T22:41:27.781Z,22.92
2022-08-14T22:43:57.115Z,22.84
2022-08-14T22:46:27.048Z,22.98
2022-08-14T22:48:54.390Z,22.92
2022-08-14T22:51:26.191Z,23.05
2022-08-14T22:53:56.319Z,23.09
2022-08-14T22:56:29.461Z,23.00
2022-08-14T22:58:59.436Z,23.09
2022-08-14T23:01:56.273Z,23.09
2022-08-14T23:04:35.371Z,23.18
2022-08-14T23:07:21.611Z,23.13
2022-08-14T23:10:33.340Z,22.86
2022-08-14T23:12:54.385Z,22.67
2022-08-14T23:15:23.430Z,22.59
2022-08-14T23:17:50.539Z,22.64
2022-08-14T23:20:21.145Z,22.83
2022-08-14T23:22:53.301Z,22.84
2022-08-14T23:25:44.641Z,22.76
2022-08-14T23:28:34.939Z,22.73
2022-08-14T23:31:08.150Z,22.93
2022-08-14T23:33:36.905Z,22.85
2022-08-14T23:36:31.638Z,22.17
2022-08-14T23:39:00.437Z,22.11
2022-08-14T23:41:27.251Z,22.37
2022-08-14T23:44:15.326Z,22.35
2022-08-14T23:46:44.220Z,22.19
2022-08-14T23:49:12.558Z,22.00
2022-08-14T23:51:39.588Z,21.92
2022-08-14T23:54:48.714Z,21.98
2022-08-14T23:57:03.093Z,21.73
2022-08-14T23:59:31.785Z,21.17
